Ride Results

NCER @ Nulla Vale (10-02-2018)
Ride distance: 80.0 km

Outcomes - NCER @ Nulla Vale (10-02-2018)
Division No. of Entries Retired / DNE Completed Withdrawn Ineligible V/O Percentage Completed
HW 3 - 2 1 - - 66.67%
MW 9 - 8 - - 1 88.89%
LW 15 - 12 3 - - 80.00%
JN 2 - 1 - - 1 50.00%
Totals 29 - 23 4 - 2 79.31%
Results - NCER @ Nulla Vale (10-02-2018)
No. Rider Horse Place Time Leg Speeds Total
Km/Hr
H/R bpm
Heavyweight
80 Ken Bradley Littlebanks Magic Wings 1 (BC) 5:25:00 16.4, 13.4 14.77 42, 38, 59 (Avg:48)
671 Rob West Cedarwood Lodge Red Diamond 2 7:42:00 11.0, 9.7 10.39 32, 46, 49 (Avg:47)
135 Tamara Atkinson Brieema Rafferty Withdrawn L1 0:00:00 - - 50, 48 (Avg:48)
Middleweight
126 Wendy Riha Bullio Gebreselassie 1 (BC) 5:59:00 15.3, 11.8 13.37 32, 42, 41 (Avg:41)
315 Matt Milne Yaraandoo Myee-Jarrah 2 6:04:00 15.1, 11.6 13.19 33, 42, 52 (Avg:47)
798 Talia Bognar Halimas Andronicus 3 6:24:00 13.4, 11.7 12.50 37, 50, 55 (Avg:52)
775 Sharyn Coulston Castlebar Thunder 3 6:24:00 13.1, 11.9 12.50 32, 39, 40 (Avg:39)
13 Linda Tanian Castlebar Cossack 3 6:24:00 13.1, 11.9 12.50 32, 42, 44 (Avg:43)
797 Tayla Hadzi Oso Florin 6 6:32:00 12.9, 11.6 12.24 43, 39, 40 (Avg:39)
70 Jil Bourton Roswick Ameera 7 7:10:00 12.6, 9.9 11.16 36, 48, 50 (Avg:49)
309 Robyn Player Breakaway Image of Marwan 8 7:42:00 11.0, 9.7 10.39 49, 45, 49 (Avg:47)
sa70 Jil Bourton Veloce Liberty Lame P/R 0:00:00 - - 38
Lightweight
91 Kim Noble Mizzi Couger 1 (BC) 5:09:00 16.4, 14.7 15.53 32, 40, 51 (Avg:45)
183 Nicky Robinson Doug 2 5:29:00 15.1, 14.0 14.59 26, 52, 57 (Avg:54)
318 Rebecca Williamson Cougar Swan Chiron 3 6:03:00 15.3, 11.5 13.22 31, 46, 44 (Avg:45)
762 Dianne Luker Sallydale Wings on Fire 4 6:10:00 15.0, 11.3 12.97 34, 43, 49 (Avg:46)
771 Victoria Bice Kalimnah Farm Neo 5 6:24:00 15.0, 10.6 12.50 34, 48, 52 (Avg:50)
321 Renee Henry Cadenza Supernatural 6 6:32:00 13.8, 10.9 12.24 32, 37, 36 (Avg:36)
796 Emily Pinnuck Oso Diamond Dazzler 6 6:32:00 12.9, 11.6 12.24 46, 38, 42 (Avg:40)
63 Pamela Cox Aloha Delilah 8 7:35:00 11.5, 9.6 10.55 33, 39, 42 (Avg:40)
264 Sarah Doyle Arfaja Silver Bard 8 7:35:00 11.5, 9.6 10.55 38, 40, 47 (Avg:43)
288 Taylah Nikolic Shemesh El Nadir 10 7:53:00 11.1, 9.3 10.15 32, 46, 51 (Avg:48)
760 Tiffany Milne Ben 11 7:55:00 11.4, 9.0 10.11 36, 40, 42 (Avg:41)
770 Alexandra Saint John Sbara Oscar 11 7:55:00 10.5, 9.7 10.11 46, 47, 53 (Avg:50)
17 Sallyann Duke Aloha Ramilez Withdrawn L1 0:00:00 - - 37, 48 (Avg:48)
25050 Nicki Samson-Ward Skye Dancer Withdrawn L1 0:00:00 - - 36, 49 (Avg:49)
8813 Amanda Smith Nicari Shareefa Withdrawn L1 0:00:00 - - 34, 42 (Avg:42)
Junior
767 Cassidy Worden Chelleason Bey Justynn 1 (BC) 7:53:00 11.2, 9.2 10.15 33, 42, 34 (Avg:38)
292 Alison Noble Warrawee Naaziq Heart Rate L2 0:00:00 16.4, 14.7 - 38, 45, 66 (Avg:55)